createdAt,value
2023-05-21T00:00:20.837Z,16.88
2023-05-21T00:01:23.762Z,18.45
2023-05-21T00:02:30.045Z,17.55
2023-05-21T00:03:33.030Z,21.65
2023-05-21T00:04:35.729Z,18.60
2023-05-21T00:05:39.217Z,21.63
2023-05-21T00:06:42.027Z,20.08
2023-05-21T00:07:45.947Z,21.00
2023-05-21T00:08:48.553Z,20.90
2023-05-21T00:09:51.174Z,17.58
2023-05-21T00:10:53.842Z,18.80
2023-05-21T00:11:56.558Z,17.15
2023-05-21T00:12:59.200Z,16.60
2023-05-21T00:14:01.868Z,17.08
2023-05-21T00:15:05.095Z,20.60
2023-05-21T00:16:08.190Z,18.52
2023-05-21T00:17:10.849Z,17.30
2023-05-21T00:18:13.469Z,18.85
2023-05-21T00:19:16.373Z,18.20
2023-05-21T00:20:20.222Z,20.65
2023-05-21T00:21:22.866Z,19.08
2023-05-21T00:22:25.646Z,18.10
2023-05-21T00:23:28.460Z,19.30
2023-05-21T00:24:31.130Z,19.63
2023-05-21T00:25:33.960Z,17.75
2023-05-21T00:26:36.975Z,20.30
2023-05-21T00:27:39.748Z,21.33
2023-05-21T00:28:42.521Z,21.42
2023-05-21T00:29:45.412Z,20.55
2023-05-21T00:30:48.055Z,24.77
2023-05-21T00:31:51.207Z,23.17
2023-05-21T00:32:54.007Z,24.42
2023-05-21T00:33:56.713Z,24.30
2023-05-21T00:34:59.435Z,24.10
2023-05-21T00:36:02.127Z,23.83
2023-05-21T00:37:04.975Z,24.77
2023-05-21T00:38:08.753Z,26.52
2023-05-21T00:39:14.540Z,25.25
2023-05-21T00:40:19.493Z,23.60
2023-05-21T00:41:23.237Z,23.15
2023-05-21T00:42:27.351Z,27.73
2023-05-21T00:43:30.089Z,24.00
2023-05-21T00:44:35.853Z,25.60
2023-05-21T00:45:38.651Z,22.90
2023-05-21T00:46:41.818Z,22.63
2023-05-21T00:47:45.890Z,23.00
2023-05-21T00:48:50.843Z,23.42
2023-05-21T00:49:53.540Z,25.42
2023-05-21T00:50:56.668Z,23.05
2023-05-21T00:52:01.635Z,24.27
2023-05-21T00:53:04.931Z,23.45
2023-05-21T00:54:08.378Z,24.02
2023-05-21T00:55:11.259Z,25.85
2023-05-21T00:56:14.189Z,24.83
2023-05-21T00:57:22.905Z,24.67
2023-05-21T00:58:25.781Z,23.10
2023-05-21T00:59:28.878Z,24.60
2023-05-21T01:00:36.024Z,25.80
2023-05-21T01:01:38.723Z,27.52
2023-05-21T01:02:42.352Z,25.02
2023-05-21T01:03:45.160Z,26.25
2023-05-21T01:04:48.107Z,25.30
2023-05-21T01:05:53.539Z,24.55
2023-05-21T01:06:58.606Z,25.55
2023-05-21T01:08:01.681Z,25.65
2023-05-21T01:09:07.325Z,24.17
2023-05-21T01:10:11.770Z,27.05
2023-05-21T01:11:15.167Z,26.20
2023-05-21T01:12:19.440Z,25.30
2023-05-21T01:13:23.327Z,23.67
2023-05-21T01:14:26.605Z,22.75
2023-05-21T01:15:29.528Z,22.08
2023-05-21T01:16:32.384Z,22.08
2023-05-21T01:17:35.855Z,22.92
2023-05-21T01:18:38.821Z,22.52
2023-05-21T01:19:42.718Z,21.40
2023-05-21T01:20:48.140Z,24.10
2023-05-21T01:22:06.508Z,23.58
2023-05-21T01:23:09.589Z,24.10
2023-05-21T01:24:12.288Z,22.73
2023-05-21T01:25:15.136Z,21.88
2023-05-21T01:26:18.541Z,20.33
2023-05-21T01:27:21.813Z,20.02
2023-05-21T01:28:26.149Z,21.40
2023-05-21T01:29:28.787Z,19.15
2023-05-21T01:30:31.740Z,20.25
2023-05-21T01:31:46.257Z,21.75
2023-05-21T01:32:59.339Z,20.95
2023-05-21T01:34:06.032Z,20.10
2023-05-21T01:35:17.748Z,20.70
2023-05-21T01:36:26.368Z,21.77
2023-05-21T01:37:38.144Z,20.48
2023-05-21T01:38:58.015Z,22.52
2023-05-21T01:40:13.535Z,24.52
2023-05-21T01:41:19.584Z,24.90
2023-05-21T01:42:24.332Z,25.25
2023-05-21T01:43:29.858Z,22.63
2023-05-21T01:44:34.587Z,22.80
2023-05-21T01:45:42.808Z,25.80
2023-05-21T01:46:46.108Z,26.08
2023-05-21T01:47:52.599Z,24.10
2023-05-21T01:48:56.923Z,25.27
2023-05-21T01:50:01.522Z,26.30
2023-05-21T01:51:06.244Z,25.92
2023-05-21T01:52:09.554Z,23.63
2023-05-21T01:53:12.513Z,26.20
2023-05-21T01:54:15.150Z,25.20
2023-05-21T01:55:18.501Z,23.65
2023-05-21T01:56:25.831Z,23.42
2023-05-21T01:57:28.553Z,23.73
2023-05-21T01:58:31.377Z,22.83
2023-05-21T01:59:35.395Z,22.35
2023-05-21T02:00:40.054Z,23.33
2023-05-21T02:01:43.081Z,23.98
2023-05-21T02:02:45.885Z,25.92
2023-05-21T02:03:48.725Z,22.40
2023-05-21T02:04:51.648Z,24.10
2023-05-21T02:05:55.779Z,25.48
2023-05-21T02:06:58.834Z,24.30
2023-05-21T02:08:01.802Z,24.20
2023-05-21T02:09:04.883Z,24.27
2023-05-21T02:10:08.109Z,22.33
2023-05-21T02:11:11.006Z,23.38
2023-05-21T02:12:13.749Z,22.60
2023-05-21T02:13:20.436Z,24.25
2023-05-21T02:14:25.401Z,24.33
2023-05-21T02:15:28.180Z,25.27
2023-05-21T02:16:30.863Z,24.88
2023-05-21T02:17:38.772Z,24.80
2023-05-21T02:18:48.236Z,24.40
2023-05-21T02:19:50.989Z,23.38
2023-05-21T02:20:53.715Z,25.40
2023-05-21T02:21:56.418Z,24.05
2023-05-21T02:22:59.176Z,24.08
2023-05-21T02:24:01.844Z,26.40
2023-05-21T02:25:07.350Z,25.60
2023-05-21T02:26:10.028Z,24.92
2023-05-21T02:27:13.727Z,23.30
2023-05-21T02:28:16.490Z,24.58
2023-05-21T02:29:19.228Z,23.55
2023-05-21T02:30:22.283Z,22.20
2023-05-21T02:31:25.216Z,22.90
2023-05-21T02:32:27.932Z,23.98
2023-05-21T02:33:30.628Z,23.65
2023-05-21T02:34:34.889Z,25.65
2023-05-21T02:35:37.799Z,24.00
2023-05-21T02:36:41.596Z,24.17
2023-05-21T02:37:44.564Z,22.23
2023-05-21T02:38:47.808Z,23.15
2023-05-21T02:39:50.746Z,24.00
2023-05-21T02:40:53.955Z,21.38
2023-05-21T02:41:56.851Z,23.10
2023-05-21T02:43:00.262Z,21.70
2023-05-21T02:44:02.975Z,21.20
2023-05-21T02:45:11.572Z,20.30
2023-05-21T02:46:16.071Z,24.05
2023-05-21T02:47:23.725Z,25.27
2023-05-21T02:48:26.411Z,26.15
2023-05-21T02:49:29.069Z,25.92
2023-05-21T02:50:31.920Z,26.83
2023-05-21T02:51:35.504Z,26.70
2023-05-21T02:52:38.190Z,28.25
2023-05-21T02:53:40.834Z,26.02
2023-05-21T02:54:43.557Z,27.65
2023-05-21T02:55:46.218Z,26.40
2023-05-21T02:56:48.917Z,25.67
2023-05-21T02:57:51.650Z,28.02
2023-05-21T02:58:54.632Z,29.30
2023-05-21T02:59:57.419Z,26.65
2023-05-21T03:01:00.103Z,29.10
2023-05-21T03:02:03.800Z,27.60
2023-05-21T03:03:06.554Z,27.13
2023-05-21T03:04:09.280Z,28.75
2023-05-21T03:05:11.935Z,29.08
2023-05-21T03:06:16.503Z,30.05
2023-05-21T03:07:20.125Z,32.10
2023-05-21T03:08:23.088Z,29.95
2023-05-21T03:09:25.771Z,31.67
2023-05-21T03:10:28.430Z,32.97
2023-05-21T03:11:31.088Z,30.95
2023-05-21T03:12:34.721Z,30.05
2023-05-21T03:13:37.466Z,33.13
2023-05-21T03:14:40.198Z,32.00
2023-05-21T03:15:44.026Z,32.30
2023-05-21T03:16:46.735Z,30.60
2023-05-21T03:17:50.496Z,31.20
2023-05-21T03:18:53.561Z,30.75
2023-05-21T03:19:56.299Z,27.98
2023-05-21T03:20:59.121Z,30.15
2023-05-21T03:22:03.784Z,31.75
2023-05-21T03:23:09.037Z,31.85
2023-05-21T03:24:13.779Z,30.45
2023-05-21T03:25:16.543Z,31.23
2023-05-21T03:26:19.767Z,32.05
2023-05-21T03:27:22.772Z,31.73
2023-05-21T03:28:25.996Z,30.15
2023-05-21T03:29:29.223Z,30.50
2023-05-21T03:30:32.375Z,30.55
2023-05-21T03:31:55.970Z,29.75
2023-05-21T03:33:00.006Z,29.75
2023-05-21T03:34:02.957Z,29.52
2023-05-21T03:35:07.865Z,31.45
2023-05-21T03:36:10.673Z,30.92
2023-05-21T03:37:13.781Z,30.48
2023-05-21T03:38:16.493Z,30.85
2023-05-21T03:39:19.244Z,30.00
2023-05-21T03:40:22.014Z,28.75
2023-05-21T03:41:25.086Z,28.35
2023-05-21T03:42:32.744Z,26.77
2023-05-21T03:43:35.861Z,28.50
2023-05-21T03:44:38.587Z,29.50
2023-05-21T03:46:02.913Z,27.45
2023-05-21T03:47:23.683Z,25.40
2023-05-21T03:48:27.678Z,26.20
2023-05-21T03:49:30.791Z,27.40
2023-05-21T03:50:34.565Z,27.95
2023-05-21T03:51:38.483Z,27.45
2023-05-21T03:52:42.467Z,29.20
2023-05-21T03:53:45.251Z,27.27
2023-05-21T03:54:47.917Z,25.65
2023-05-21T03:55:55.326Z,26.17
2023-05-21T03:57:00.023Z,31.23
2023-05-21T03:58:03.977Z,27.17
2023-05-21T03:59:06.665Z,26.63
2023-05-21T04:00:10.106Z,31.45
2023-05-21T04:01:19.582Z,31.30
2023-05-21T04:02:27.589Z,28.58
2023-05-21T04:03:32.702Z,26.13
2023-05-21T04:04:35.447Z,25.90
2023-05-21T04:05:38.293Z,29.90
2023-05-21T04:06:42.389Z,30.50
2023-05-21T04:07:46.542Z,28.98
2023-05-21T04:08:49.329Z,26.83
2023-05-21T04:09:52.018Z,27.50
2023-05-21T04:10:54.816Z,30.40
2023-05-21T04:11:57.938Z,27.63
2023-05-21T04:13:00.677Z,26.75
2023-05-21T04:14:03.370Z,27.27
2023-05-21T04:15:06.974Z,29.00
2023-05-21T04:16:10.969Z,32.42
2023-05-21T04:17:14.199Z,30.77
2023-05-21T04:18:17.237Z,31.58
2023-05-21T04:19:20.703Z,32.80
2023-05-21T04:20:24.153Z,29.73
2023-05-21T04:21:26.818Z,31.88
2023-05-21T04:22:29.617Z,32.80
2023-05-21T04:23:33.477Z,29.20
2023-05-21T04:24:38.278Z,31.38
2023-05-21T04:25:51.688Z,30.25
2023-05-21T04:26:56.051Z,29.48
2023-05-21T04:27:58.821Z,33.60
2023-05-21T04:29:03.844Z,32.22
2023-05-21T04:30:07.333Z,33.03
2023-05-21T04:31:13.759Z,30.75
2023-05-21T04:32:18.074Z,31.38
2023-05-21T04:33:20.783Z,32.30
2023-05-21T04:34:23.718Z,30.65
2023-05-21T04:35:27.349Z,32.58
2023-05-21T04:36:30.347Z,30.73
2023-05-21T04:37:35.324Z,32.53
2023-05-21T04:38:39.916Z,31.73
2023-05-21T04:39:42.588Z,30.38
2023-05-21T04:40:48.112Z,31.60
2023-05-21T04:41:50.826Z,31.15
2023-05-21T04:42:53.681Z,33.42
2023-05-21T04:43:59.100Z,31.25
2023-05-21T04:45:05.536Z,30.15
2023-05-21T04:46:10.870Z,33.58
2023-05-21T04:47:14.958Z,30.80
2023-05-21T04:48:18.073Z,32.90
2023-05-21T04:49:23.848Z,33.67
2023-05-21T04:50:26.500Z,30.40
2023-05-21T04:51:31.303Z,31.60
2023-05-21T04:52:34.940Z,31.23
2023-05-21T04:53:38.901Z,32.10
2023-05-21T04:54:42.035Z,31.70
2023-05-21T04:55:44.764Z,30.05
2023-05-21T04:56:47.486Z,28.52
2023-05-21T04:57:51.182Z,31.67
2023-05-21T04:58:54.518Z,31.55
2023-05-21T04:59:58.022Z,33.55
2023-05-21T05:01:03.314Z,33.78
2023-05-21T05:02:06.661Z,34.05
2023-05-21T05:03:09.511Z,32.05
2023-05-21T05:04:12.553Z,33.33
2023-05-21T05:05:15.231Z,33.08
2023-05-21T05:06:18.067Z,30.65
2023-05-21T05:07:21.650Z,28.20
2023-05-21T05:08:24.373Z,33.78
2023-05-21T05:09:27.010Z,33.05
2023-05-21T05:10:29.695Z,31.65
2023-05-21T05:11:32.347Z,34.13
2023-05-21T05:12:35.024Z,32.53
2023-05-21T05:13:39.222Z,33.45
2023-05-21T05:14:41.857Z,31.98
2023-05-21T05:15:45.831Z,33.22
2023-05-21T05:16:49.632Z,33.17
2023-05-21T05:17:54.743Z,34.58
2023-05-21T05:18:57.609Z,33.28
2023-05-21T05:20:00.605Z,32.75
2023-05-21T05:21:04.067Z,32.83
2023-05-21T05:22:07.739Z,32.70
2023-05-21T05:23:11.304Z,33.80
2023-05-21T05:24:14.020Z,33.83
2023-05-21T05:25:17.103Z,34.20
2023-05-21T05:26:21.670Z,33.70
2023-05-21T05:27:25.151Z,30.38
2023-05-21T05:28:27.991Z,34.40
2023-05-21T05:29:30.646Z,31.65
2023-05-21T05:30:33.619Z,31.50
2023-05-21T05:31:47.140Z,32.05
2023-05-21T05:32:51.201Z,32.42
2023-05-21T05:33:55.247Z,32.90
2023-05-21T05:35:02.093Z,31.67
2023-05-21T05:36:05.300Z,32.25
2023-05-21T05:37:07.998Z,31.05
2023-05-21T05:38:10.951Z,34.25
2023-05-21T05:39:14.096Z,31.70
2023-05-21T05:40:16.741Z,34.47
2023-05-21T05:41:20.225Z,32.88
2023-05-21T05:42:24.519Z,34.80
2023-05-21T05:43:27.195Z,33.30
2023-05-21T05:44:31.288Z,34.20
2023-05-21T05:45:34.821Z,33.25
2023-05-21T05:46:40.867Z,30.85
2023-05-21T05:47:44.125Z,32.10
2023-05-21T05:48:46.948Z,32.72
2023-05-21T05:49:49.589Z,31.53
2023-05-21T05:50:54.803Z,31.85
2023-05-21T05:52:01.284Z,32.28
2023-05-21T05:53:04.011Z,33.13
2023-05-21T05:54:06.662Z,34.33
2023-05-21T05:55:12.934Z,33.65
2023-05-21T05:56:17.227Z,33.30
2023-05-21T05:57:20.122Z,34.10
2023-05-21T05:58:24.989Z,31.10
2023-05-21T05:59:42.962Z,34.55
2023-05-21T06:00:47.203Z,37.35
2023-05-21T06:01:49.908Z,31.85
2023-05-21T06:02:52.969Z,33.97
2023-05-21T06:03:57.529Z,32.25
2023-05-21T06:05:00.649Z,31.25
2023-05-21T06:06:03.473Z,31.73
2023-05-21T06:07:06.815Z,30.38
2023-05-21T06:08:11.178Z,31.02
2023-05-21T06:09:13.977Z,34.00
2023-05-21T06:10:17.740Z,30.73
2023-05-21T06:11:21.703Z,33.20
2023-05-21T06:12:25.526Z,28.92
2023-05-21T06:13:28.471Z,32.13
2023-05-21T06:14:31.132Z,30.58
2023-05-21T06:15:34.055Z,28.80
2023-05-21T06:16:37.384Z,27.30
2023-05-21T06:17:40.224Z,27.42
2023-05-21T06:18:42.967Z,32.93
2023-05-21T06:19:46.155Z,31.50
2023-05-21T06:20:48.801Z,32.30
2023-05-21T06:21:52.585Z,29.42
2023-05-21T06:22:55.255Z,29.63
2023-05-21T06:23:57.971Z,30.30
2023-05-21T06:25:00.791Z,32.08
2023-05-21T06:26:04.496Z,29.97
2023-05-21T06:27:07.998Z,30.97
2023-05-21T06:28:10.682Z,31.02
2023-05-21T06:29:15.492Z,30.05
2023-05-21T06:30:18.406Z,30.70
2023-05-21T06:31:22.452Z,32.30
2023-05-21T06:32:25.897Z,30.73
2023-05-21T06:33:28.864Z,32.70
2023-05-21T06:34:31.620Z,31.10
2023-05-21T06:35:37.493Z,30.90
2023-05-21T06:36:41.272Z,29.83
2023-05-21T06:37:43.913Z,27.30
2023-05-21T06:38:46.892Z,32.53
2023-05-21T06:39:50.056Z,29.30
2023-05-21T06:40:52.853Z,31.88
2023-05-21T06:42:10.957Z,30.80
2023-05-21T06:43:28.780Z,28.10
2023-05-21T06:45:02.109Z,25.83
2023-05-21T06:46:07.466Z,29.08
2023-05-21T06:47:15.392Z,30.20
2023-05-21T06:48:18.105Z,29.70
2023-05-21T06:49:21.961Z,30.07
2023-05-21T06:50:24.629Z,29.97
2023-05-21T06:51:27.787Z,27.97
2023-05-21T06:52:31.889Z,29.00
2023-05-21T06:53:36.411Z,27.70
2023-05-21T06:54:39.140Z,28.30
2023-05-21T06:55:45.661Z,25.90
2023-05-21T06:56:51.955Z,26.53
2023-05-21T06:57:54.920Z,25.50
2023-05-21T06:58:57.686Z,28.13
2023-05-21T07:00:00.311Z,26.43
2023-05-21T07:01:03.290Z,25.40
2023-05-21T07:02:06.759Z,28.30
2023-05-21T07:03:09.592Z,29.40
2023-05-21T07:04:12.354Z,26.73
2023-05-21T07:05:16.999Z,26.27
2023-05-21T07:06:19.675Z,24.52
2023-05-21T07:07:22.456Z,28.60
2023-05-21T07:08:25.121Z,28.33
2023-05-21T07:09:27.813Z,26.40
2023-05-21T07:10:30.592Z,22.03
2023-05-21T07:11:33.753Z,27.27
2023-05-21T07:12:37.837Z,29.10
2023-05-21T07:13:40.708Z,24.93
2023-05-21T07:14:43.416Z,26.53
2023-05-21T07:15:46.180Z,25.70
2023-05-21T07:16:49.346Z,29.17
2023-05-21T07:17:52.040Z,25.80
2023-05-21T07:18:55.528Z,26.60
2023-05-21T07:19:58.374Z,25.97
2023-05-21T07:21:01.165Z,28.83
2023-05-21T07:22:06.750Z,26.00
2023-05-21T07:23:09.463Z,25.03
2023-05-21T07:24:12.107Z,25.57
2023-05-21T07:25:16.302Z,26.00
2023-05-21T07:26:19.116Z,24.20
2023-05-21T07:27:25.686Z,25.83
2023-05-21T07:28:30.832Z,28.87
2023-05-21T07:29:34.290Z,27.10
2023-05-21T07:30:36.918Z,23.88
2023-05-21T07:31:43.378Z,28.07
2023-05-21T07:32:46.640Z,24.97
2023-05-21T07:33:49.446Z,22.50
2023-05-21T07:34:54.412Z,19.63
2023-05-21T07:35:59.472Z,22.07
2023-05-21T07:37:02.651Z,22.50
2023-05-21T07:38:06.227Z,24.97
2023-05-21T07:39:09.010Z,26.73
2023-05-21T07:40:13.753Z,28.60
2023-05-21T07:41:18.859Z,25.90
2023-05-21T07:42:22.688Z,25.23
2023-05-21T07:43:25.326Z,23.53
2023-05-21T07:44:28.098Z,26.87
2023-05-21T07:45:30.863Z,28.30
2023-05-21T07:46:33.699Z,22.80
2023-05-21T07:47:36.390Z,19.50
2023-05-21T07:48:39.120Z,22.77
2023-05-21T07:49:41.785Z,22.83
2023-05-21T07:50:45.137Z,26.03
2023-05-21T07:51:48.014Z,25.40
2023-05-21T07:52:51.690Z,25.07
2023-05-21T07:53:56.622Z,25.52
2023-05-21T07:55:07.481Z,24.33
2023-05-21T07:56:11.875Z,23.80
2023-05-21T07:57:14.622Z,24.40
2023-05-21T07:58:45.965Z,23.20
2023-05-21T07:59:51.270Z,23.20
2023-05-21T08:00:53.990Z,26.10
2023-05-21T08:01:56.716Z,26.10
2023-05-21T08:02:59.442Z,26.40
2023-05-21T08:04:05.884Z,25.30
2023-05-21T08:05:10.687Z,25.30
2023-05-21T08:06:13.693Z,26.33
2023-05-21T08:07:19.892Z,24.25
2023-05-21T08:08:23.455Z,25.10
2023-05-21T08:09:28.477Z,25.40
2023-05-21T08:10:31.379Z,21.93
2023-05-21T08:11:34.632Z,24.73
2023-05-21T08:12:37.673Z,23.77
2023-05-21T08:13:41.323Z,21.00
2023-05-21T08:14:46.518Z,19.80
2023-05-21T08:15:52.866Z,21.27
2023-05-21T08:16:57.289Z,22.17
2023-05-21T08:18:00.117Z,24.15
2023-05-21T08:19:03.699Z,24.07
2023-05-21T08:20:07.640Z,22.87
2023-05-21T08:21:12.783Z,23.30
2023-05-21T08:22:16.055Z,23.27
2023-05-21T08:23:21.347Z,21.67
2023-05-21T08:24:27.771Z,24.83
2023-05-21T08:25:30.432Z,22.57
2023-05-21T08:26:33.902Z,22.83
2023-05-21T08:27:38.258Z,22.10
2023-05-21T08:28:41.005Z,23.50
2023-05-21T08:29:43.845Z,24.40
2023-05-21T08:30:46.637Z,21.37
2023-05-21T08:31:49.394Z,22.60
2023-05-21T08:32:52.188Z,23.23
2023-05-21T08:33:56.793Z,21.60
2023-05-21T08:35:11.296Z,21.17
2023-05-21T08:36:43.407Z,21.43
2023-05-21T08:38:02.487Z,23.60
2023-05-21T08:39:37.126Z,22.13
2023-05-21T08:40:41.551Z,23.53
2023-05-21T08:41:49.797Z,23.00
2023-05-21T08:42:52.842Z,22.43
2023-05-21T08:44:21.470Z,21.60
2023-05-21T08:45:24.329Z,20.20
2023-05-21T08:46:32.945Z,20.50
2023-05-21T08:47:37.164Z,20.80
2023-05-21T08:48:43.318Z,21.20
2023-05-21T08:49:48.147Z,22.63
2023-05-21T08:50:55.182Z,20.07
2023-05-21T08:52:03.014Z,20.20
2023-05-21T08:53:15.978Z,20.43
2023-05-21T08:54:29.058Z,20.10
2023-05-21T08:55:32.665Z,21.07
2023-05-21T08:56:35.940Z,20.60
2023-05-21T08:57:43.353Z,19.90
2023-05-21T08:58:47.362Z,19.83
2023-05-21T08:59:52.535Z,20.00
2023-05-21T09:01:01.409Z,17.67
2023-05-21T09:02:05.467Z,17.10
2023-05-21T09:03:13.934Z,20.37
2023-05-21T09:04:20.913Z,19.20
2023-05-21T09:05:27.600Z,19.30
2023-05-21T09:06:33.992Z,18.57
2023-05-21T09:07:47.629Z,18.40
2023-05-21T09:09:24.151Z,19.03
2023-05-21T09:10:34.850Z,19.17
2023-05-21T09:11:37.986Z,18.73
2023-05-21T09:12:41.129Z,18.40
2023-05-21T09:13:45.720Z,19.87
2023-05-21T09:14:58.464Z,21.93
2023-05-21T09:16:07.045Z,21.00
2023-05-21T09:17:09.735Z,17.70
2023-05-21T09:18:13.520Z,16.87
2023-05-21T09:19:30.352Z,19.10
2023-05-21T09:20:33.109Z,20.80
2023-05-21T09:21:39.833Z,17.77
2023-05-21T09:22:50.549Z,17.33
2023-05-21T09:23:57.030Z,18.53
2023-05-21T09:25:04.603Z,17.33
2023-05-21T09:26:12.957Z,18.27
2023-05-21T09:27:18.326Z,19.40
2023-05-21T09:28:21.384Z,18.10
2023-05-21T09:29:26.130Z,17.40
2023-05-21T09:30:30.703Z,17.50
2023-05-21T09:31:35.197Z,17.40
2023-05-21T09:32:39.207Z,17.87
2023-05-21T09:33:48.266Z,17.27
2023-05-21T09:34:51.852Z,15.70
2023-05-21T09:35:54.777Z,15.60
2023-05-21T09:36:58.013Z,17.77
2023-05-21T09:38:01.907Z,17.00
2023-05-21T09:39:05.069Z,18.00
2023-05-21T09:40:15.247Z,15.90
2023-05-21T09:41:22.358Z,16.17
2023-05-21T09:42:25.356Z,16.13
2023-05-21T09:43:27.959Z,17.20
2023-05-21T09:44:32.342Z,16.40
2023-05-21T09:45:35.355Z,16.27
2023-05-21T09:46:42.407Z,15.67
2023-05-21T09:47:46.773Z,16.53
2023-05-21T09:48:49.426Z,16.67
2023-05-21T09:49:58.770Z,17.60
2023-05-21T09:51:09.417Z,17.43
2023-05-21T09:52:12.053Z,16.40
2023-05-21T09:53:14.715Z,16.60
2023-05-21T09:54:17.324Z,15.10
2023-05-21T09:55:23.481Z,15.23
2023-05-21T09:56:29.472Z,15.83
2023-05-21T09:57:32.433Z,15.83
2023-05-21T09:58:35.241Z,16.40
2023-05-21T09:59:39.354Z,16.33
2023-05-21T10:00:42.206Z,15.53
2023-05-21T10:01:45.806Z,17.13
2023-05-21T10:02:54.539Z,14.40
2023-05-21T10:03:59.269Z,13.33
2023-05-21T10:05:05.818Z,14.33
2023-05-21T10:06:11.792Z,16.13
2023-05-21T10:07:25.986Z,14.73
2023-05-21T10:08:31.607Z,13.60
2023-05-21T10:09:34.224Z,14.60
2023-05-21T10:10:39.099Z,14.10
2023-05-21T10:11:45.164Z,13.00
2023-05-21T10:12:58.999Z,13.20
2023-05-21T10:14:11.625Z,14.87
2023-05-21T10:15:17.036Z,12.67
2023-05-21T10:16:20.015Z,13.30
2023-05-21T10:17:23.810Z,13.13
2023-05-21T10:18:27.585Z,13.67
2023-05-21T10:19:32.080Z,13.90
2023-05-21T10:20:35.621Z,12.57
2023-05-21T10:21:40.018Z,13.80
2023-05-21T10:22:42.720Z,13.50
2023-05-21T10:23:46.446Z,13.03
2023-05-21T10:24:50.622Z,13.67
2023-05-21T10:25:54.226Z,14.00
2023-05-21T10:26:57.088Z,14.27
2023-05-21T10:27:59.752Z,12.73
2023-05-21T10:29:03.366Z,14.90
2023-05-21T10:30:07.157Z,13.13
2023-05-21T10:31:10.685Z,14.70
2023-05-21T10:32:15.769Z,14.03
2023-05-21T10:33:18.538Z,13.70
2023-05-21T10:34:23.529Z,13.17
2023-05-21T10:35:27.467Z,12.90
2023-05-21T10:36:31.866Z,12.40
2023-05-21T10:37:34.818Z,12.60
2023-05-21T10:38:39.281Z,12.33
2023-05-21T10:39:45.974Z,13.77
2023-05-21T10:40:49.388Z,12.73
2023-05-21T10:42:05.771Z,11.50
2023-05-21T10:43:46.501Z,11.73
2023-05-21T10:45:51.414Z,12.20
2023-05-21T10:47:50.610Z,11.20
2023-05-21T10:49:22.768Z,11.67
2023-05-21T10:51:09.205Z,11.27
2023-05-21T10:52:31.078Z,11.70
2023-05-21T10:54:14.190Z,10.00
2023-05-21T10:55:43.258Z,10.43
2023-05-21T10:57:19.024Z,10.83
2023-05-21T10:58:37.191Z,11.00
2023-05-21T10:59:49.764Z,11.83
2023-05-21T11:00:55.447Z,10.70
2023-05-21T11:01:58.555Z,10.80
2023-05-21T11:03:03.620Z,10.80
2023-05-21T11:04:06.884Z,12.97
2023-05-21T11:05:09.540Z,13.07
2023-05-21T11:06:22.845Z,11.87
2023-05-21T11:07:57.794Z,11.47
2023-05-21T11:09:14.159Z,11.93
2023-05-21T11:10:40.673Z,11.67
2023-05-21T11:11:51.224Z,11.20
2023-05-21T11:13:27.343Z,11.13
2023-05-21T11:14:42.946Z,11.73
2023-05-21T11:16:01.480Z,10.30
2023-05-21T11:17:16.558Z,10.67
2023-05-21T11:18:19.296Z,11.63
2023-05-21T11:19:21.984Z,11.83
2023-05-21T11:20:35.117Z,11.60
2023-05-21T11:21:40.844Z,10.80
2023-05-21T11:22:46.676Z,10.87
2023-05-21T11:23:52.486Z,11.77
2023-05-21T11:25:01.152Z,12.20
2023-05-21T11:26:04.057Z,12.40
2023-05-21T11:27:07.270Z,11.43
2023-05-21T11:28:09.947Z,12.40
2023-05-21T11:29:12.952Z,13.33
2023-05-21T11:30:18.236Z,11.80
2023-05-21T11:31:30.469Z,11.13
2023-05-21T11:32:33.216Z,11.87
2023-05-21T11:33:35.882Z,11.80
2023-05-21T11:34:47.080Z,11.30
2023-05-21T11:35:57.413Z,12.80
2023-05-21T11:37:18.274Z,12.63
2023-05-21T11:38:21.107Z,11.00
2023-05-21T11:39:25.961Z,12.17
2023-05-21T11:40:30.636Z,12.63
2023-05-21T11:41:53.845Z,12.10
2023-05-21T11:42:57.307Z,10.97
2023-05-21T11:44:02.536Z,12.40
2023-05-21T11:45:06.059Z,11.30
2023-05-21T11:46:12.266Z,10.93
2023-05-21T11:47:17.780Z,11.90
2023-05-21T11:48:27.261Z,11.67
2023-05-21T11:49:31.553Z,11.20
2023-05-21T11:50:34.914Z,12.07
2023-05-21T11:51:37.835Z,12.07
2023-05-21T11:52:42.141Z,11.10
2023-05-21T11:53:45.556Z,11.50
2023-05-21T11:54:54.099Z,12.50
2023-05-21T11:55:57.788Z,11.70
2023-05-21T11:57:01.976Z,10.50
2023-05-21T11:58:06.011Z,11.10
2023-05-21T11:59:18.544Z,10.90
2023-05-21T12:00:22.031Z,10.20
2023-05-21T12:01:25.148Z,10.30
2023-05-21T12:02:31.412Z,10.33
2023-05-21T12:03:35.695Z,11.20
2023-05-21T12:04:38.443Z,10.50
2023-05-21T12:05:48.850Z,10.07
2023-05-21T12:06:51.894Z,10.00
2023-05-21T12:07:55.520Z,10.13
2023-05-21T12:08:59.090Z,10.10
2023-05-21T12:10:01.736Z,10.40
2023-05-21T12:11:04.623Z,10.60
2023-05-21T12:12:11.540Z,10.40
2023-05-21T12:13:15.117Z,10.35
2023-05-21T12:14:18.070Z,10.80
2023-05-21T12:15:21.148Z,9.97
2023-05-21T12:16:23.898Z,10.67
2023-05-21T12:17:26.855Z,11.27
2023-05-21T12:18:29.471Z,9.50
2023-05-21T12:19:36.854Z,9.93
2023-05-21T12:20:39.496Z,11.47
2023-05-21T12:21:42.660Z,10.80
2023-05-21T12:22:45.440Z,10.00
2023-05-21T12:23:48.040Z,9.25
2023-05-21T12:24:51.275Z,10.70
2023-05-21T12:25:54.235Z,10.90
2023-05-21T12:27:01.980Z,10.10
2023-05-21T12:28:05.466Z,9.57
2023-05-21T12:29:08.344Z,10.02
2023-05-21T12:30:11.471Z,8.83
2023-05-21T12:31:17.133Z,9.60
2023-05-21T12:32:21.673Z,10.17
2023-05-21T12:33:26.058Z,10.23
2023-05-21T12:34:45.615Z,10.15
2023-05-21T12:35:50.551Z,9.47
2023-05-21T12:36:53.331Z,10.20
2023-05-21T12:37:56.722Z,9.80
2023-05-21T12:38:59.403Z,9.27
2023-05-21T12:40:11.967Z,10.35
2023-05-21T12:41:14.935Z,9.37
2023-05-21T12:42:25.608Z,8.87
2023-05-21T12:43:32.985Z,9.80
2023-05-21T12:44:36.810Z,9.60
2023-05-21T12:45:39.975Z,9.80
2023-05-21T12:46:43.211Z,9.97
2023-05-21T12:47:50.451Z,9.57
2023-05-21T12:48:56.130Z,8.83
2023-05-21T12:49:59.975Z,9.83
2023-05-21T12:51:02.611Z,9.60
2023-05-21T12:52:12.921Z,8.80
2023-05-21T12:53:15.659Z,8.50
2023-05-21T12:54:18.326Z,9.40
2023-05-21T12:55:24.132Z,9.23
2023-05-21T12:56:26.806Z,9.20
2023-05-21T12:57:38.991Z,8.97
2023-05-21T12:58:49.929Z,9.00
2023-05-21T13:00:00.693Z,8.70
2023-05-21T13:01:06.297Z,9.30
2023-05-21T13:02:09.080Z,8.37
2023-05-21T13:03:12.109Z,9.40
2023-05-21T13:04:14.830Z,9.07
2023-05-21T13:05:18.703Z,9.33
2023-05-21T13:06:21.361Z,8.57
2023-05-21T13:07:26.335Z,8.67
2023-05-21T13:08:29.603Z,8.43
2023-05-21T13:09:32.190Z,8.73
2023-05-21T13:10:35.168Z,8.70
2023-05-21T13:11:38.058Z,9.00
2023-05-21T13:12:43.523Z,8.60
2023-05-21T13:13:46.884Z,9.17
2023-05-21T13:14:51.665Z,9.23
2023-05-21T13:15:55.552Z,8.33
2023-05-21T13:16:58.657Z,8.70
2023-05-21T13:18:01.596Z,9.03
2023-05-21T13:19:04.365Z,8.90
2023-05-21T13:20:10.273Z,8.03
2023-05-21T13:21:13.012Z,8.90
2023-05-21T13:22:15.771Z,8.00
2023-05-21T13:23:18.445Z,7.57
2023-05-21T13:24:21.184Z,8.20
2023-05-21T13:25:28.795Z,9.23
2023-05-21T13:26:31.817Z,7.83
2023-05-21T13:27:34.718Z,8.30
2023-05-21T13:28:37.360Z,8.83
2023-05-21T13:29:40.017Z,7.27
2023-05-21T13:30:42.662Z,8.27
2023-05-21T13:31:45.586Z,8.70
2023-05-21T13:32:48.881Z,8.00
2023-05-21T13:33:51.829Z,7.77
2023-05-21T13:34:54.450Z,8.40
2023-05-21T13:35:57.041Z,8.00
2023-05-21T13:36:59.732Z,7.70
2023-05-21T13:38:02.450Z,8.60
2023-05-21T13:39:05.245Z,8.13
2023-05-21T13:40:11.373Z,7.77
2023-05-21T13:41:14.064Z,8.27
2023-05-21T13:42:21.257Z,7.93
2023-05-21T13:43:24.001Z,8.20
2023-05-21T13:44:26.590Z,8.13
2023-05-21T13:45:29.542Z,8.30
2023-05-21T13:46:32.421Z,7.60
2023-05-21T13:47:39.163Z,7.95
2023-05-21T13:48:43.346Z,7.97
2023-05-21T13:49:45.980Z,8.77
2023-05-21T13:50:48.655Z,7.50
2023-05-21T13:51:51.344Z,8.50
2023-05-21T13:52:54.016Z,8.50
2023-05-21T13:53:56.943Z,7.70
2023-05-21T13:54:59.765Z,7.70
2023-05-21T13:56:02.541Z,6.97
2023-05-21T13:57:05.365Z,7.30
2023-05-21T13:58:08.010Z,7.53
2023-05-21T13:59:10.706Z,7.47
2023-05-21T14:00:15.796Z,7.47
2023-05-21T14:01:18.966Z,8.70
2023-05-21T14:02:21.672Z,7.23
2023-05-21T14:03:24.373Z,7.90
2023-05-21T14:04:27.051Z,7.77